Ifestos I — SV4139 — position and weather

sailwx.info

Track history (hours):
 
Tides and Currents Weather Stations Pressure Air Temp Water Temp Dewpoint Dewpoint Depression Visibility Wind Speed Wind Dir Waves Ship Positions

Ifestos I

Last reported at 2014-Nov-23 19:33 UTC. Time now 2014-Nov-23 20:03 UTC.
Position N 38°01' E 023°36'.

Length 30 m.

Type: Tug. MMSI: 237070500.

Date/timePositionNaut miles runAvg speedWind from/ knotsBaromVisibWave heightAir tempDewpointWater temp
2014-Nov-23 19:33N 38°01' E 023°36'0 0.0
2014-Nov-23 18:33N 38°01' E 023°36'0 0.0
2014-Nov-23 17:33N 38°01' E 023°36'0 0.0
2014-Nov-23 16:33N 38°01' E 023°36'0 0.2
2014-Nov-23 15:33N 38°02' E 023°36'3 2.6
2014-Nov-23 14:33N 38°01' E 023°32'1 0.6
2014-Nov-23 13:33N 38°02' E 023°32'0 0.0
2014-Nov-23 12:33N 38°02' E 023°32'0 0.0
2014-Nov-23 11:33N 38°02' E 023°32'0 0.0
2014-Nov-23 10:33N 38°02' E 023°32'0 0.0
2014-Nov-23 09:33N 38°02' E 023°32'7 6.7
2014-Nov-23 08:33N 37°58' E 023°26'2 1.9
2014-Nov-23 07:33N 37°58' E 023°23'5 4.9
2014-Nov-23 06:33N 38°00' E 023°28'6 6.2
2014-Nov-23 05:33N 37°57' E 023°35'1 1.0
2014-Nov-23 04:33N 37°57' E 023°37'0 0.0
2014-Nov-23 03:33N 37°57' E 023°37'0 0.0
2014-Nov-23 02:33N 37°57' E 023°37'0 0.0
2014-Nov-23 01:33N 37°57' E 023°37'0 0.0
2014-Nov-23 00:15N 37°57' E 023°37'0 0.0
2014-Nov-22 23:33N 37°57' E 023°37'0 0.0
2014-Nov-22 22:33N 37°57' E 023°37'0 0.0
2014-Nov-22 21:33N 37°57' E 023°37'0 0.0
2014-Nov-22 20:33N 37°57' E 023°37'0 0.0
2014-Nov-22 19:33N 37°57' E 023°37'0 0.0
2014-Nov-22 18:33N 37°57' E 023°37'0 0.0
2014-Nov-22 17:33N 37°57' E 023°37'0 0.0
2014-Nov-22 16:33N 37°57' E 023°37'0 0.0
2014-Nov-22 15:33N 37°57' E 023°37'0 0.0
2014-Nov-22 14:33N 37°57' E 023°37'0 0.0
2014-Nov-22 13:33N 37°57' E 023°37'0 0.0
2014-Nov-22 12:33N 37°57' E 023°37'0 0.0
2014-Nov-22 11:33N 37°57' E 023°37'0 0.0
2014-Nov-22 10:33N 37°57' E 023°37'0 0.0
2014-Nov-22 09:33N 37°57' E 023°37'0 0.0
2014-Nov-22 08:33N 37°57' E 023°37'0 0.0
2014-Nov-22 07:33N 37°57' E 023°37'0 0.0
2014-Nov-22 06:33N 37°57' E 023°37'0 0.0
2014-Nov-22 05:33N 37°57' E 023°37'0 0.0
2014-Nov-22 04:33N 37°57' E 023°37'0 0.0
2014-Nov-22 03:33N 37°57' E 023°37'0 0.0
2014-Nov-22 02:33N 37°57' E 023°37'0 0.0
2014-Nov-22 01:33N 37°57' E 023°37'0 0.0
2014-Nov-22 00:33N 37°57' E 023°37'0 0.0
2014-Nov-21 23:33N 37°57' E 023°37'0 0.0
2014-Nov-21 22:33N 37°57' E 023°37'0 0.0
2014-Nov-21 21:33N 37°57' E 023°37'0 0.0
2014-Nov-21 20:33N 37°57' E 023°37'0 0.0
2014-Nov-21 19:33N 37°57' E 023°37'0 0.0
2014-Nov-21 18:33N 37°57' E 023°37'0 0.0
2014-Nov-21 17:33N 37°57' E 023°37'0 0.0
2014-Nov-21 16:33N 37°57' E 023°37'2 2.5
2014-Nov-21 15:33N 37°57' E 023°33'3 3.2
2014-Nov-21 14:33N 37°54' E 023°34'3 2.9
2014-Nov-21 13:33N 37°57' E 023°35'1 1.0
2014-Nov-21 12:33N 37°57' E 023°37'1 1.0
2014-Nov-21 11:33N 37°57' E 023°36'1 1.0
2014-Nov-21 10:33N 37°57' E 023°37'0 0.0
2014-Nov-21 09:33N 37°57' E 023°37'2 2.2
2014-Nov-21 08:33N 37°58' E 023°34'2 1.8
2014-Nov-21 07:34N 37°57' E 023°36'0 0.0
2014-Nov-21 06:33N 37°57' E 023°36'0 0.0
2014-Nov-21 05:33N 37°57' E 023°36'1 0.6
2014-Nov-21 04:33N 37°57' E 023°35'1 1.1
2014-Nov-21 03:33N 37°57' E 023°37'0 0.0
2014-Nov-21 02:32N 37°57' E 023°37'0 0.0
2014-Nov-21 01:33N 37°57' E 023°37'0 0.0
2014-Nov-21 00:33N 37°57' E 023°37'0 0.0
2014-Nov-20 23:33N 37°57' E 023°37'0 0.0
2014-Nov-20 22:33N 37°57' E 023°37'0 0.0
2014-Nov-20 21:33N 37°57' E 023°37'0 0.0
2014-Nov-20 20:33N 37°57' E 023°37'0 0.0
2014-Nov-20 19:33N 37°57' E 023°37'0 0.0
2014-Nov-20 18:33N 37°57' E 023°37'0 0.0
2014-Nov-20 17:33N 37°57' E 023°37'1 1.1
2014-Nov-20 16:33N 37°57' E 023°35'1 1.1
2014-Nov-20 15:33N 37°57' E 023°37'0 0.0
2014-Nov-20 14:33N 37°57' E 023°37'0 0.0
2014-Nov-20 13:33N 37°57' E 023°37'0 0.0
2014-Nov-20 12:33N 37°57' E 023°37'0 0.0
2014-Nov-20 11:33N 37°57' E 023°37'1 0.7
2014-Nov-20 10:33N 37°57' E 023°36'1 0.7
2014-Nov-20 09:33N 37°57' E 023°37'0 0.0
2014-Nov-20 08:33N 37°57' E 023°37'1 1.1
2014-Nov-20 07:33N 37°57' E 023°35'2 1.8
2014-Nov-20 06:32N 37°58' E 023°33'3 3.5
2014-Nov-20 05:33N 37°55' E 023°37'2 0.6
2014-Nov-20 02:31N 37°57' E 023°37'0 0.0
2014-Nov-20 01:16N 37°57' E 023°37'0 0.0
2014-Nov-20 00:34N 37°57' E 023°37'0 0.0
2014-Nov-19 23:33N 37°57' E 023°37'0 0.0
2014-Nov-19 22:33N 37°57' E 023°37'0 0.0
2014-Nov-19 21:33N 37°57' E 023°37'0 0.0
2014-Nov-19 20:33N 37°57' E 023°37'0 0.0
2014-Nov-19 19:33N 37°57' E 023°37'0 0.0
2014-Nov-19 18:33N 37°57' E 023°37'6 6.5
2014-Nov-19 17:33N 38°02' E 023°30'0 0.4
2014-Nov-19 16:33N 38°02' E 023°31'0 0.0
2014-Nov-19 15:33N 38°02' E 023°31'1 0.6
2014-Nov-19 14:33N 38°02' E 023°31'7 7.5
2014-Nov-19 13:33N 37°56' E 023°37'0 0.0
2014-Nov-19 12:33N 37°56' E 023°37'0 0.0
2014-Nov-19 11:33N 37°56' E 023°37'3 2.5
2014-Nov-19 10:33N 37°57' E 023°34'6 6.0
2014-Nov-19 09:33N 38°02' E 023°30'0 0.5
2014-Nov-19 08:33N 38°02' E 023°31'6 6.3
2014-Nov-19 07:33N 37°57' E 023°36'1 0.7
2014-Nov-19 06:33N 37°57' E 023°37'1 1.0
2014-Nov-19 05:33N 37°57' E 023°35'0 0.1
2014-Nov-19 04:33N 37°57' E 023°35'1 1.0
2014-Nov-19 03:33N 37°57' E 023°37'0 0.0
2014-Nov-19 02:33N 37°57' E 023°37'0 0.0
2014-Nov-19 01:33N 37°57' E 023°37'4 4.5
2014-Nov-19 00:33N 38°00' E 023°32'1 1.3
2014-Nov-18 23:33N 38°01' E 023°31'2 2.2
2014-Nov-18 22:33N 37°60' E 023°33'4 3.6
2014-Nov-18 21:33N 37°57' E 023°37'0 0.0
2014-Nov-18 20:33N 37°57' E 023°37'0 0.0
2014-Nov-18 19:20N 37°57' E 023°37'0 0.0
2014-Nov-18 18:33N 37°57' E 023°37'0 0.0
2014-Nov-18 17:33N 37°57' E 023°37'0 0.0
2014-Nov-18 16:33N 37°57' E 023°37'0 0.0
2014-Nov-18 15:33N 37°57' E 023°37'0 0.0
2014-Nov-18 14:33N 37°57' E 023°37'0 0.2
2014-Nov-18 12:32N 37°57' E 023°36'0 0.5
2014-Nov-18 11:33N 37°57' E 023°37'0 0.0
2014-Nov-18 10:33N 37°57' E 023°37'1 0.8
2014-Nov-18 09:33N 37°57' E 023°36'5 4.6
2014-Nov-18 08:33N 38°02' E 023°36'4 4.4
2014-Nov-18 07:33N 37°58' E 023°34'1 1.1
2014-Nov-18 06:33N 37°57' E 023°35'0 0.1
2014-Nov-18 05:33N 37°57' E 023°35'0 0.4
2014-Nov-18 04:32N 37°57' E 023°36'1 0.6
2014-Nov-18 03:15N 37°57' E 023°37'0 0.0
2014-Nov-18 01:33N 37°57' E 023°37'0 0.0
2014-Nov-18 00:33N 37°57' E 023°37'0 0.0
2014-Nov-17 23:33N 37°57' E 023°37'0 0.0
2014-Nov-17 22:33N 37°57' E 023°37'0 0.0
2014-Nov-17 21:33N 37°57' E 023°37'0 0.0
2014-Nov-17 20:33N 37°57' E 023°37'0 0.0
2014-Nov-17 19:33N 37°57' E 023°37'0 0.0
2014-Nov-17 18:33N 37°57' E 023°37'0 0.0
2014-Nov-17 17:33N 37°57' E 023°37'0 0.2
2014-Nov-17 16:33N 37°58' E 023°36'0 0.2
2014-Nov-17 15:33N 37°57' E 023°37'0 0.0
2014-Nov-17 14:33N 37°57' E 023°37'0 0.0
2014-Nov-17 13:33N 37°57' E 023°37'0 0.0
2014-Nov-17 12:33N 37°57' E 023°37'3 2.8
2014-Nov-17 11:33N 37°58' E 023°33'3 2.6
2014-Nov-17 10:33N 38°00' E 023°33'2 2.2
2014-Nov-17 09:33N 38°01' E 023°36'0 0.1
2014-Nov-17 08:33N 38°01' E 023°36'0 0.0
2014-Nov-17 07:27N 38°01' E 023°36'0 0.0
2014-Nov-17 06:33N 38°01' E 023°36'0 0.0
2014-Nov-17 05:32N 38°01' E 023°36'0 0.0
2014-Nov-17 04:33N 38°01' E 023°36'0 0.0
2014-Nov-17 03:33N 38°01' E 023°36'0 0.0
2014-Nov-17 02:33N 38°01' E 023°36'0 0.0
2014-Nov-17 01:33N 38°01' E 023°36'0 0.0
2014-Nov-17 00:33N 38°01' E 023°35'0 0.0
2014-Nov-16 23:33N 38°01' E 023°35'0 0.0
2014-Nov-16 22:33N 38°01' E 023°36'0 0.0
2014-Nov-16 21:33N 38°01' E 023°36'0 0.0
2014-Nov-16 20:33N 38°01' E 023°36'0 0.0
2014-Nov-16 19:33N 38°01' E 023°36'0 0.0
2014-Nov-16 18:33N 38°01' E 023°35'0 0.0
2014-Nov-16 17:33N 38°01' E 023°36'0 0.0
2014-Nov-16 16:31N 38°01' E 023°36'0 0.0
2014-Nov-16 15:21N 38°01' E 023°36'0 0.0
2014-Nov-16 14:30N 38°01' E 023°36'0 0.0
2014-Nov-16 13:33N 38°01' E 023°36'0 0.0
2014-Nov-16 12:33N 38°01' E 023°36'0 0.0
2014-Nov-16 11:33N 38°01' E 023°36'0 0.0
2014-Nov-16 10:33N 38°01' E 023°36'0 0.0
2014-Nov-16 09:33N 38°01' E 023°36'0 0.0
2014-Nov-16 08:33N 38°01' E 023°36'0 0.0
2014-Nov-16 07:33N 38°01' E 023°36'0 0.0
2014-Nov-16 06:33N 38°01' E 023°36'0 0.0
2014-Nov-16 05:33N 38°01' E 023°36'0 0.0
2014-Nov-16 04:33N 38°01' E 023°35'0 0.0
2014-Nov-16 03:33N 38°01' E 023°36'0 0.0
2014-Nov-16 02:33N 38°01' E 023°35'0 0.0
2014-Nov-16 01:33N 38°01' E 023°36'0 0.0
2014-Nov-16 00:33N 38°01' E 023°35'0 0.0
2014-Nov-15 23:33N 38°01' E 023°36'0 0.0
2014-Nov-15 22:33N 38°01' E 023°35'0 0.0
2014-Nov-15 21:33N 38°01' E 023°36'0 0.0
2014-Nov-15 20:33N 38°01' E 023°35'0 0.0
2014-Nov-15 19:33N 38°01' E 023°36'0 0.0
2014-Nov-15 18:33N 38°01' E 023°35'0 0.0
2014-Nov-15 17:33N 38°01' E 023°35'0 0.0
2014-Nov-15 16:33N 38°01' E 023°36'0 0.3
2014-Nov-15 15:31N 38°01' E 023°35'1 0.8
2014-Nov-15 14:33N 38°01' E 023°35'3 3.1
2014-Nov-15 13:33N 37°58' E 023°34'2 2.2
2014-Nov-15 12:33N 37°57' E 023°37'0 0.0
2014-Nov-15 11:33N 37°57' E 023°37'0 0.0
2014-Nov-15 10:28N 37°57' E 023°37'0 0.0
2014-Nov-15 09:33N 37°57' E 023°37'0 0.0
2014-Nov-15 08:33N 37°57' E 023°37'0 0.0
2014-Nov-15 07:33N 37°57' E 023°37'0 0.0
2014-Nov-15 06:33N 37°57' E 023°37'0 0.0
2014-Nov-15 05:33N 37°57' E 023°37'0 0.5
2014-Nov-15 04:33N 37°57' E 023°36'0 0.5
2014-Nov-15 03:33N 37°57' E 023°37'5 5.0
2014-Nov-15 02:33N 37°54' E 023°32'7 7.4
2014-Nov-15 01:33N 37°54' E 023°23'4 3.6
2014-Nov-15 00:33N 37°58' E 023°24'0 0.4
2014-Nov-14 23:33N 37°58' E 023°24'3 3.4
2014-Nov-14 22:33N 38°00' E 023°27'7 7.4
2014-Nov-14 21:33N 37°57' E 023°36'1 0.8
2014-Nov-14 20:33N 37°57' E 023°37'0 0.0
2014-Nov-14 19:33N 37°57' E 023°37'0 0.0
2014-Nov-14 18:33N 37°57' E 023°37'0 0.0
2014-Nov-14 17:33N 37°57' E 023°37'0 0.0
2014-Nov-14 16:33N 37°57' E 023°37'0 0.0
2014-Nov-14 15:33N 37°57' E 023°37'0 0.0
2014-Nov-14 14:33N 37°57' E 023°37'0 0.0
2014-Nov-14 09:32N 37°57' E 023°37'2 2.4
2014-Nov-14 08:33N 37°57' E 023°34'0 0.0
2014-Nov-14 07:33N 37°57' E 023°34'2 0.7
2014-Nov-14 05:16N 37°57' E 023°36'1 0.1
2014-Nov-13 23:17N 37°57' E 023°37'  
Track history (hours):
 
Tides and Currents Weather Stations Pressure Air Temp Water Temp Dewpoint Dewpoint Depression Visibility Wind Speed Wind Dir Waves Ship Positions

Ifestos I

Last reported at 2014-Nov-23 19:33 UTC. Time now 2014-Nov-23 20:03 UTC.
Position N 38°01' E 023°36'.

Length 30 m.

Type: Tug. MMSI: 237070500.

Date/timePositionNaut miles runAvg speedWind from/ knotsBaromVisibWave heightAir tempDewpointWater temp
2014-Nov-23 19:33N 38°01' E 023°36'0 0.0
2014-Nov-23 18:33N 38°01' E 023°36'0 0.0
2014-Nov-23 17:33N 38°01' E 023°36'0 0.0
2014-Nov-23 16:33N 38°01' E 023°36'0 0.2
2014-Nov-23 15:33N 38°02' E 023°36'3 2.6
2014-Nov-23 14:33N 38°01' E 023°32'1 0.6
2014-Nov-23 13:33N 38°02' E 023°32'0 0.0
2014-Nov-23 12:33N 38°02' E 023°32'0 0.0
2014-Nov-23 11:33N 38°02' E 023°32'0 0.0
2014-Nov-23 10:33N 38°02' E 023°32'0 0.0
2014-Nov-23 09:33N 38°02' E 023°32'7 6.7
2014-Nov-23 08:33N 37°58' E 023°26'2 1.9
2014-Nov-23 07:33N 37°58' E 023°23'5 4.9
2014-Nov-23 06:33N 38°00' E 023°28'6 6.2
2014-Nov-23 05:33N 37°57' E 023°35'1 1.0
2014-Nov-23 04:33N 37°57' E 023°37'0 0.0
2014-Nov-23 03:33N 37°57' E 023°37'0 0.0
2014-Nov-23 02:33N 37°57' E 023°37'0 0.0
2014-Nov-23 01:33N 37°57' E 023°37'0 0.0
2014-Nov-23 00:15N 37°57' E 023°37'0 0.0
2014-Nov-22 23:33N 37°57' E 023°37'0 0.0
2014-Nov-22 22:33N 37°57' E 023°37'0 0.0
2014-Nov-22 21:33N 37°57' E 023°37'0 0.0
2014-Nov-22 20:33N 37°57' E 023°37'0 0.0
2014-Nov-22 19:33N 37°57' E 023°37'0 0.0
2014-Nov-22 18:33N 37°57' E 023°37'0 0.0
2014-Nov-22 17:33N 37°57' E 023°37'0 0.0
2014-Nov-22 16:33N 37°57' E 023°37'0 0.0
2014-Nov-22 15:33N 37°57' E 023°37'0 0.0
2014-Nov-22 14:33N 37°57' E 023°37'0 0.0
2014-Nov-22 13:33N 37°57' E 023°37'0 0.0
2014-Nov-22 12:33N 37°57' E 023°37'0 0.0
2014-Nov-22 11:33N 37°57' E 023°37'0 0.0
2014-Nov-22 10:33N 37°57' E 023°37'0 0.0
2014-Nov-22 09:33N 37°57' E 023°37'0 0.0
2014-Nov-22 08:33N 37°57' E 023°37'0 0.0
2014-Nov-22 07:33N 37°57' E 023°37'0 0.0
2014-Nov-22 06:33N 37°57' E 023°37'0 0.0
2014-Nov-22 05:33N 37°57' E 023°37'0 0.0
2014-Nov-22 04:33N 37°57' E 023°37'0 0.0
2014-Nov-22 03:33N 37°57' E 023°37'0 0.0
2014-Nov-22 02:33N 37°57' E 023°37'0 0.0
2014-Nov-22 01:33N 37°57' E 023°37'0 0.0
2014-Nov-22 00:33N 37°57' E 023°37'0 0.0
2014-Nov-21 23:33N 37°57' E 023°37'0 0.0
2014-Nov-21 22:33N 37°57' E 023°37'0 0.0
2014-Nov-21 21:33N 37°57' E 023°37'0 0.0
2014-Nov-21 20:33N 37°57' E 023°37'0 0.0
2014-Nov-21 19:33N 37°57' E 023°37'0 0.0
2014-Nov-21 18:33N 37°57' E 023°37'0 0.0
2014-Nov-21 17:33N 37°57' E 023°37'0 0.0
2014-Nov-21 16:33N 37°57' E 023°37'2 2.5
2014-Nov-21 15:33N 37°57' E 023°33'3 3.2
2014-Nov-21 14:33N 37°54' E 023°34'3 2.9
2014-Nov-21 13:33N 37°57' E 023°35'1 1.0
2014-Nov-21 12:33N 37°57' E 023°37'1 1.0
2014-Nov-21 11:33N 37°57' E 023°36'1 1.0
2014-Nov-21 10:33N 37°57' E 023°37'0 0.0
2014-Nov-21 09:33N 37°57' E 023°37'2 2.2
2014-Nov-21 08:33N 37°58' E 023°34'2 1.8
2014-Nov-21 07:34N 37°57' E 023°36'0 0.0
2014-Nov-21 06:33N 37°57' E 023°36'0 0.0
2014-Nov-21 05:33N 37°57' E 023°36'1 0.6
2014-Nov-21 04:33N 37°57' E 023°35'1 1.1
2014-Nov-21 03:33N 37°57' E 023°37'0 0.0
2014-Nov-21 02:32N 37°57' E 023°37'0 0.0
2014-Nov-21 01:33N 37°57' E 023°37'0 0.0
2014-Nov-21 00:33N 37°57' E 023°37'0 0.0
2014-Nov-20 23:33N 37°57' E 023°37'0 0.0
2014-Nov-20 22:33N 37°57' E 023°37'0 0.0
2014-Nov-20 21:33N 37°57' E 023°37'0 0.0
2014-Nov-20 20:33N 37°57' E 023°37'0 0.0
2014-Nov-20 19:33N 37°57' E 023°37'0 0.0
2014-Nov-20 18:33N 37°57' E 023°37'0 0.0
2014-Nov-20 17:33N 37°57' E 023°37'1 1.1
2014-Nov-20 16:33N 37°57' E 023°35'1 1.1
2014-Nov-20 15:33N 37°57' E 023°37'0 0.0
2014-Nov-20 14:33N 37°57' E 023°37'0 0.0
2014-Nov-20 13:33N 37°57' E 023°37'0 0.0
2014-Nov-20 12:33N 37°57' E 023°37'0 0.0
2014-Nov-20 11:33N 37°57' E 023°37'1 0.7
2014-Nov-20 10:33N 37°57' E 023°36'1 0.7
2014-Nov-20 09:33N 37°57' E 023°37'0 0.0
2014-Nov-20 08:33N 37°57' E 023°37'1 1.1
2014-Nov-20 07:33N 37°57' E 023°35'2 1.8
2014-Nov-20 06:32N 37°58' E 023°33'3 3.5
2014-Nov-20 05:33N 37°55' E 023°37'2 0.6
2014-Nov-20 02:31N 37°57' E 023°37'0 0.0
2014-Nov-20 01:16N 37°57' E 023°37'0 0.0
2014-Nov-20 00:34N 37°57' E 023°37'0 0.0
2014-Nov-19 23:33N 37°57' E 023°37'0 0.0
2014-Nov-19 22:33N 37°57' E 023°37'0 0.0
2014-Nov-19 21:33N 37°57' E 023°37'0 0.0
2014-Nov-19 20:33N 37°57' E 023°37'0 0.0
2014-Nov-19 19:33N 37°57' E 023°37'0 0.0
2014-Nov-19 18:33N 37°57' E 023°37'6 6.5
2014-Nov-19 17:33N 38°02' E 023°30'0 0.4
2014-Nov-19 16:33N 38°02' E 023°31'0 0.0
2014-Nov-19 15:33N 38°02' E 023°31'1 0.6
2014-Nov-19 14:33N 38°02' E 023°31'7 7.5
2014-Nov-19 13:33N 37°56' E 023°37'0 0.0
2014-Nov-19 12:33N 37°56' E 023°37'0 0.0
2014-Nov-19 11:33N 37°56' E 023°37'3 2.5
2014-Nov-19 10:33N 37°57' E 023°34'6 6.0
2014-Nov-19 09:33N 38°02' E 023°30'0 0.5
2014-Nov-19 08:33N 38°02' E 023°31'6 6.3
2014-Nov-19 07:33N 37°57' E 023°36'1 0.7
2014-Nov-19 06:33N 37°57' E 023°37'1 1.0
2014-Nov-19 05:33N 37°57' E 023°35'0 0.1
2014-Nov-19 04:33N 37°57' E 023°35'1 1.0
2014-Nov-19 03:33N 37°57' E 023°37'0 0.0
2014-Nov-19 02:33N 37°57' E 023°37'0 0.0
2014-Nov-19 01:33N 37°57' E 023°37'4 4.5
2014-Nov-19 00:33N 38°00' E 023°32'1 1.3
2014-Nov-18 23:33N 38°01' E 023°31'2 2.2
2014-Nov-18 22:33N 37°60' E 023°33'4 3.6
2014-Nov-18 21:33N 37°57' E 023°37'0 0.0
2014-Nov-18 20:33N 37°57' E 023°37'0 0.0
2014-Nov-18 19:20N 37°57' E 023°37'0 0.0
2014-Nov-18 18:33N 37°57' E 023°37'0 0.0
2014-Nov-18 17:33N 37°57' E 023°37'0 0.0
2014-Nov-18 16:33N 37°57' E 023°37'0 0.0
2014-Nov-18 15:33N 37°57' E 023°37'0 0.0
2014-Nov-18 14:33N 37°57' E 023°37'0 0.2
2014-Nov-18 12:32N 37°57' E 023°36'0 0.5
2014-Nov-18 11:33N 37°57' E 023°37'0 0.0
2014-Nov-18 10:33N 37°57' E 023°37'1 0.8
2014-Nov-18 09:33N 37°57' E 023°36'5 4.6
2014-Nov-18 08:33N 38°02' E 023°36'4 4.4
2014-Nov-18 07:33N 37°58' E 023°34'1 1.1
2014-Nov-18 06:33N 37°57' E 023°35'0 0.1
2014-Nov-18 05:33N 37°57' E 023°35'0 0.4
2014-Nov-18 04:32N 37°57' E 023°36'1 0.6
2014-Nov-18 03:15N 37°57' E 023°37'0 0.0
2014-Nov-18 01:33N 37°57' E 023°37'0 0.0
2014-Nov-18 00:33N 37°57' E 023°37'0 0.0
2014-Nov-17 23:33N 37°57' E 023°37'0 0.0
2014-Nov-17 22:33N 37°57' E 023°37'0 0.0
2014-Nov-17 21:33N 37°57' E 023°37'0 0.0
2014-Nov-17 20:33N 37°57' E 023°37'0 0.0
2014-Nov-17 19:33N 37°57' E 023°37'0 0.0
2014-Nov-17 18:33N 37°57' E 023°37'0 0.0
2014-Nov-17 17:33N 37°57' E 023°37'0 0.2
2014-Nov-17 16:33N 37°58' E 023°36'0 0.2
2014-Nov-17 15:33N 37°57' E 023°37'0 0.0
2014-Nov-17 14:33N 37°57' E 023°37'0 0.0
2014-Nov-17 13:33N 37°57' E 023°37'0 0.0
2014-Nov-17 12:33N 37°57' E 023°37'3 2.8
2014-Nov-17 11:33N 37°58' E 023°33'3 2.6
2014-Nov-17 10:33N 38°00' E 023°33'2 2.2
2014-Nov-17 09:33N 38°01' E 023°36'0 0.1
2014-Nov-17 08:33N 38°01' E 023°36'0 0.0
2014-Nov-17 07:27N 38°01' E 023°36'0 0.0
2014-Nov-17 06:33N 38°01' E 023°36'0 0.0
2014-Nov-17 05:32N 38°01' E 023°36'0 0.0
2014-Nov-17 04:33N 38°01' E 023°36'0 0.0
2014-Nov-17 03:33N 38°01' E 023°36'0 0.0
2014-Nov-17 02:33N 38°01' E 023°36'0 0.0
2014-Nov-17 01:33N 38°01' E 023°36'0 0.0
2014-Nov-17 00:33N 38°01' E 023°35'0 0.0
2014-Nov-16 23:33N 38°01' E 023°35'0 0.0
2014-Nov-16 22:33N 38°01' E 023°36'0 0.0
2014-Nov-16 21:33N 38°01' E 023°36'0 0.0
2014-Nov-16 20:33N 38°01' E 023°36'0 0.0
2014-Nov-16 19:33N 38°01' E 023°36'0 0.0
2014-Nov-16 18:33N 38°01' E 023°35'0 0.0
2014-Nov-16 17:33N 38°01' E 023°36'0 0.0
2014-Nov-16 16:31N 38°01' E 023°36'0 0.0
2014-Nov-16 15:21N 38°01' E 023°36'0 0.0
2014-Nov-16 14:30N 38°01' E 023°36'0 0.0
2014-Nov-16 13:33N 38°01' E 023°36'0 0.0
2014-Nov-16 12:33N 38°01' E 023°36'0 0.0
2014-Nov-16 11:33N 38°01' E 023°36'0 0.0
2014-Nov-16 10:33N 38°01' E 023°36'0 0.0
2014-Nov-16 09:33N 38°01' E 023°36'0 0.0
2014-Nov-16 08:33N 38°01' E 023°36'0 0.0
2014-Nov-16 07:33N 38°01' E 023°36'0 0.0
2014-Nov-16 06:33N 38°01' E 023°36'0 0.0
2014-Nov-16 05:33N 38°01' E 023°36'0 0.0
2014-Nov-16 04:33N 38°01' E 023°35'0 0.0
2014-Nov-16 03:33N 38°01' E 023°36'0 0.0
2014-Nov-16 02:33N 38°01' E 023°35'0 0.0
2014-Nov-16 01:33N 38°01' E 023°36'0 0.0
2014-Nov-16 00:33N 38°01' E 023°35'0 0.0
2014-Nov-15 23:33N 38°01' E 023°36'0 0.0
2014-Nov-15 22:33N 38°01' E 023°35'0 0.0
2014-Nov-15 21:33N 38°01' E 023°36'0 0.0
2014-Nov-15 20:33N 38°01' E 023°35'0 0.0
2014-Nov-15 19:33N 38°01' E 023°36'0 0.0
2014-Nov-15 18:33N 38°01' E 023°35'0 0.0
2014-Nov-15 17:33N 38°01' E 023°35'0 0.0
2014-Nov-15 16:33N 38°01' E 023°36'0 0.3
2014-Nov-15 15:31N 38°01' E 023°35'1 0.8
2014-Nov-15 14:33N 38°01' E 023°35'3 3.1
2014-Nov-15 13:33N 37°58' E 023°34'2 2.2
2014-Nov-15 12:33N 37°57' E 023°37'0 0.0
2014-Nov-15 11:33N 37°57' E 023°37'0 0.0
2014-Nov-15 10:28N 37°57' E 023°37'0 0.0
2014-Nov-15 09:33N 37°57' E 023°37'0 0.0
2014-Nov-15 08:33N 37°57' E 023°37'0 0.0
2014-Nov-15 07:33N 37°57' E 023°37'0 0.0
2014-Nov-15 06:33N 37°57' E 023°37'0 0.0
2014-Nov-15 05:33N 37°57' E 023°37'0 0.5
2014-Nov-15 04:33N 37°57' E 023°36'0 0.5
2014-Nov-15 03:33N 37°57' E 023°37'5 5.0
2014-Nov-15 02:33N 37°54' E 023°32'7 7.4
2014-Nov-15 01:33N 37°54' E 023°23'4 3.6
2014-Nov-15 00:33N 37°58' E 023°24'0 0.4
2014-Nov-14 23:33N 37°58' E 023°24'3 3.4
2014-Nov-14 22:33N 38°00' E 023°27'7 7.4
2014-Nov-14 21:33N 37°57' E 023°36'1 0.8
2014-Nov-14 20:33N 37°57' E 023°37'0 0.0
2014-Nov-14 19:33N 37°57' E 023°37'0 0.0
2014-Nov-14 18:33N 37°57' E 023°37'0 0.0
2014-Nov-14 17:33N 37°57' E 023°37'0 0.0
2014-Nov-14 16:33N 37°57' E 023°37'0 0.0
2014-Nov-14 15:33N 37°57' E 023°37'0 0.0
2014-Nov-14 14:33N 37°57' E 023°37'0 0.0
2014-Nov-14 09:32N 37°57' E 023°37'2 2.4
2014-Nov-14 08:33N 37°57' E 023°34'0 0.0
2014-Nov-14 07:33N 37°57' E 023°34'2 0.7
2014-Nov-14 05:16N 37°57' E 023°36'1 0.1
2014-Nov-13 23:17N 37°57' E 023°37'  

Dump ship's entire track history